Time;durP1;ratioP1;P1;durP2;ratioP2;P2;SDS_P1;SDS_P2;PMS_P1;PMS_P2;Temp;Humidity;BMP_temperature;BMP_pressure;BME280_temperature;BME280_humidity;BME280_pressure;Samples;Min_cycle;Max_cycle;Signal;HPM_P1;HPM_P2
2022/05/18 00:01:43;;;;;;;7.93;4.10;;;;;;;17.28;67.27;101762.59;5013214;28;20030;-77
2022/05/18 00:04:08;;;;;;;6.40;3.72;;;;;;;17.22;66.45;101765.47;5012499;28;20054;-77
2022/05/18 00:06:34;;;;;;;6.05;3.83;;;;;;;17.14;66.85;101763.97;5012753;28;20030;-77
2022/05/18 00:08:59;;;;;;;7.05;4.07;;;;;;;17.11;67.16;101764.09;5012585;28;20096;-77
2022/05/18 00:11:24;;;;;;;7.68;4.40;;;;;;;17.05;66.93;101764.34;5013018;28;20026;-77
2022/05/18 00:13:52;;;;;;;6.43;4.30;;;;;;;16.99;67.08;101759.31;5013018;28;20034;-77
2022/05/18 00:16:19;;;;;;;6.28;4.18;;;;;;;16.95;67.48;101770.84;5012806;28;20022;-77
2022/05/18 00:18:45;;;;;;;5.88;3.60;;;;;;;16.92;67.35;101763.91;5012525;28;20029;-77
2022/05/18 00:21:10;;;;;;;5.22;3.65;;;;;;;16.89;66.86;101764.03;5012378;28;20446;-77
2022/05/18 00:23:36;;;;;;;8.02;3.70;;;;;;;16.84;67.82;101766.84;5012701;28;20042;-77
2022/05/18 00:26:02;;;;;;;8.38;3.80;;;;;;;16.81;68.04;101766.09;5012756;28;20496;-77
2022/05/18 00:28:28;;;;;;;7.88;4.20;;;;;;;16.76;68.18;101776.75;5012161;28;20116;-77
2022/05/18 00:30:53;;;;;;;5.63;3.97;;;;;;;16.74;68.58;101777.75;5012357;28;20097;-77
2022/05/18 00:33:19;;;;;;;6.38;4.20;;;;;;;16.72;68.13;101777.81;5011810;28;20057;-77
2022/05/18 00:35:44;;;;;;;8.07;4.03;;;;;;;16.70;68.52;101774.38;5012556;28;20025;-77
2022/05/18 00:38:10;;;;;;;6.20;4.22;;;;;;;16.69;68.93;101777.91;5012327;28;20030;-77
2022/05/18 00:40:39;;;;;;;6.43;3.58;;;;;;;16.63;68.07;101776.38;5012643;28;20025;-77
2022/05/18 00:43:05;;;;;;;6.13;3.63;;;;;;;16.60;68.33;101773.84;5011750;28;20030;-77
2022/05/18 00:45:31;;;;;;;6.80;3.80;;;;;;;16.56;68.58;101774.03;5011839;28;20032;-77
2022/05/18 00:47:56;;;;;;;4.97;3.85;;;;;;;16.54;68.16;101774.94;5011351;28;20049;-77
2022/05/18 00:50:27;;;;;;;6.63;3.58;;;;;;;16.47;68.32;101768.19;5012346;28;20072;-77
2022/05/18 00:53:01;;;;;;;6.75;3.83;;;;;;;16.49;68.21;101766.34;5011824;28;20022;-77
2022/05/18 00:55:30;;;;;;;6.93;3.92;;;;;;;16.45;68.39;101770.00;5011941;28;20114;-77
2022/05/18 00:58:06;;;;;;;7.15;3.70;;;;;;;16.42;68.83;101770.09;5012091;28;20459;-77
2022/05/18 01:00:34;;;;;;;4.72;3.30;;;;;;;16.38;69.30;101774.63;5011757;28;20037;-77
2022/05/18 01:03:07;;;;;;;4.82;3.50;;;;;;;16.35;69.17;101768.63;5011361;28;20026;-77
2022/05/18 01:05:34;;;;;;;6.15;3.58;;;;;;;16.33;68.78;101775.69;5011802;28;20030;-77
2022/05/18 01:08:00;;;;;;;7.47;3.90;;;;;;;16.30;68.79;101781.03;5011939;28;20057;-77
2022/05/18 01:10:28;;;;;;;4.68;3.55;;;;;;;16.27;69.32;101775.91;5011487;28;20113;-77
2022/05/18 01:12:53;;;;;;;5.90;3.38;;;;;;;16.23;69.67;101776.00;5011489;28;20105;-77
2022/05/18 01:15:21;;;;;;;6.55;4.20;;;;;;;16.22;68.45;101774.31;5010540;28;20026;-77
2022/05/18 01:17:50;;;;;;;7.55;3.92;;;;;;;16.18;68.79;101775.31;5011765;28;20461;-77
2022/05/18 01:20:22;;;;;;;6.18;3.95;;;;;;;16.14;68.09;101772.88;5011581;28;20076;-77
2022/05/18 01:23:16;;;;;;;7.43;4.15;;;;;;;16.13;68.26;101776.41;5009856;28;20030;-76
2022/05/18 01:26:05;;;;;;;5.32;4.13;;;;;;;16.09;68.06;101775.63;5011553;28;20032;-77
2022/05/18 01:28:35;;;;;;;9.27;4.57;;;;;;;16.00;69.93;101774.16;5011607;28;20104;-77
2022/05/18 01:31:04;;;;;;;7.32;4.18;;;;;;;15.98;69.71;101773.34;5010396;28;20026;-77
2022/05/18 01:33:30;;;;;;;5.22;4.15;;;;;;;15.96;68.59;101766.44;5009580;28;20032;-77
2022/05/18 01:35:55;;;;;;;8.38;4.20;;;;;;;15.90;68.56;101768.38;5011634;28;20026;-77
2022/05/18 01:38:21;;;;;;;6.38;3.75;;;;;;;15.84;69.47;101778.19;5011261;28;20051;-77
2022/05/18 01:40:56;;;;;;;6.68;3.97;;;;;;;15.79;69.75;101775.72;5011012;28;20026;-77
2022/05/18 01:43:30;;;;;;;4.60;3.20;;;;;;;15.76;69.04;101778.44;5011222;28;20029;-77
2022/05/18 01:46:02;;;;;;;5.60;4.13;;;;;;;15.76;69.29;101775.81;5011306;28;20026;-77
2022/05/18 01:48:31;;;;;;;8.77;3.85;;;;;;;15.73;69.69;101781.16;5011036;28;20121;-77
2022/05/18 01:51:01;;;;;;;7.32;3.30;;;;;;;15.66;69.33;101775.25;5010871;28;20117;-77
2022/05/18 01:53:27;;;;;;;5.13;3.60;;;;;;;15.65;69.93;101777.94;5011004;28;20033;-77
2022/05/18 01:55:53;;;;;;;7.88;4.13;;;;;;;15.60;70.32;101781.53;5009904;28;20030;-77
2022/05/18 01:58:19;;;;;;;7.22;3.90;;;;;;;15.56;70.09;101774.69;5010791;28;20032;-77
2022/05/18 02:00:45;;;;;;;5.00;4.03;;;;;;;15.55;70.51;101778.19;5010575;28;20223;-77
2022/05/18 02:03:11;;;;;;;4.68;3.78;;;;;;;15.55;70.32;101778.19;5010638;28;20117;-77
2022/05/18 02:05:36;;;;;;;6.57;3.95;;;;;;;15.55;70.26;101769.50;5011067;28;20101;-77
2022/05/18 02:08:03;;;;;;;5.97;4.15;;;;;;;15.53;70.97;101772.19;5011032;28;20037;-77
2022/05/18 02:10:29;;;;;;;6.68;4.50;;;;;;;15.50;70.85;101774.88;5010262;28;20026;-77
2022/05/18 02:12:54;;;;;;;6.32;4.38;;;;;;;15.48;70.06;101774.91;5011007;28;20033;-77
2022/05/18 02:15:20;;;;;;;6.95;4.35;;;;;;;15.46;70.19;101778.50;5011081;28;20477;-77
2022/05/18 02:17:45;;;;;;;7.03;4.40;;;;;;;15.43;70.51;101778.59;5010930;28;20048;-77
2022/05/18 02:20:12;;;;;;;6.20;4.53;;;;;;;15.39;70.66;101771.72;5010057;28;20028;-77
2022/05/18 02:22:37;;;;;;;5.47;4.50;;;;;;;15.35;70.90;101770.13;5009441;28;20033;-77
2022/05/18 02:25:03;;;;;;;6.65;4.32;;;;;;;15.35;71.31;101775.38;5010959;28;20025;-77
2022/05/18 02:27:29;;;;;;;7.53;4.50;;;;;;;15.32;71.36;101769.31;5016509;28;20032;-77
2022/05/18 02:29:55;;;;;;;7.18;4.60;;;;;;;15.29;71.35;101772.03;5016982;28;20030;-77
2022/05/18 02:32:20;;;;;;;8.18;4.88;;;;;;;15.27;71.87;101771.22;5017138;28;20026;-77
2022/05/18 02:34:46;;;;;;;8.57;4.65;;;;;;;15.27;71.68;101770.38;5017310;28;20026;-77
2022/05/18 02:37:11;;;;;;;6.55;4.78;;;;;;;15.28;71.78;101765.06;5017312;28;20468;-77
2022/05/18 02:39:36;;;;;;;8.55;4.63;;;;;;;15.28;71.36;101766.84;5016810;28;20026;-77
2022/05/18 02:42:02;;;;;;;6.63;4.40;;;;;;;15.26;71.53;101761.63;5017078;28;20108;-77
2022/05/18 02:44:27;;;;;;;11.25;4.20;;;;;;;15.27;71.85;101760.72;5017114;28;20407;-77
2022/05/18 02:46:57;;;;;;;6.20;4.65;;;;;;;15.29;72.07;101758.91;5015304;28;20034;-77
2022/05/18 02:49:24;;;;;;;6.80;4.68;;;;;;;15.30;72.23;101762.38;5016810;28;20499;-77
2022/05/18 02:51:51;;;;;;;7.07;4.90;;;;;;;15.29;72.39;101765.91;5017168;28;20025;-77
2022/05/18 02:57:00;;;;;;;8.88;5.10;;;;;;;15.35;72.01;101770.97;5016884;28;20045;-77
2022/05/18 02:59:26;;;;;;;7.93;5.03;;;;;;;15.37;72.44;101770.94;5016666;28;20025;-77
2022/05/18 03:01:52;;;;;;;9.30;4.70;;;;;;;15.38;72.17;101772.63;5016737;28;20030;-77
2022/05/18 03:04:18;;;;;;;6.93;4.85;;;;;;;15.41;72.03;101769.91;5017046;28;20084;-77
2022/05/18 03:06:44;;;;;;;8.00;4.60;;;;;;;15.45;71.75;101775.03;5016445;28;20030;-77
2022/05/18 03:09:09;;;;;;;7.13;4.97;;;;;;;15.47;72.05;101774.97;5016988;28;20468;-77
2022/05/18 03:11:35;;;;;;;7.15;4.70;;;;;;;15.49;72.22;101773.16;5017152;28;20045;-77
2022/05/18 03:14:00;;;;;;;7.68;5.05;;;;;;;15.52;72.21;101780.94;5016586;28;20093;-77
2022/05/18 03:16:27;;;;;;;6.38;4.85;;;;;;;15.55;72.95;101775.56;5016228;28;20025;-77
2022/05/18 03:18:52;;;;;;;7.90;5.25;;;;;;;15.59;73.27;101779.81;5017003;28;20107;-77
2022/05/18 03:24:02;;;;;;;9.25;5.28;;;;;;;15.65;72.68;101777.94;5015996;28;20116;-77
2022/05/18 03:26:28;;;;;;;7.70;5.38;;;;;;;15.67;72.58;101773.50;5015694;28;20400;-77
2022/05/18 03:28:55;;;;;;;7.20;5.20;;;;;;;15.67;73.15;101787.44;5016312;28;20444;-77
2022/05/18 03:31:21;;;;;;;8.02;4.78;;;;;;;15.69;72.46;101790.88;5016953;28;20087;-77
2022/05/18 03:33:47;;;;;;;8.82;5.40;;;;;;;15.71;73.06;101796.09;5016550;28;20092;-77
2022/05/18 03:36:15;;;;;;;9.05;5.40;;;;;;;15.72;73.47;101797.78;5016444;28;20539;-77
2022/05/18 03:38:42;;;;;;;8.15;5.50;;;;;;;15.76;73.61;101802.03;5013279;28;20034;-77
2022/05/18 03:41:08;;;;;;;9.65;6.05;;;;;;;15.80;73.47;101806.28;5013829;28;20026;-77
2022/05/18 03:43:34;;;;;;;8.90;5.72;;;;;;;15.87;73.18;101810.47;5013305;28;20109;-76
2022/05/18 03:45:59;;;;;;;8.85;6.35;;;;;;;15.91;73.46;101814.69;5012923;28;20080;-77
2022/05/18 03:48:25;;;;;;;8.90;6.63;;;;;;;15.96;73.15;101816.31;5011240;28;20485;-77
2022/05/18 03:50:53;;;;;;;11.05;6.57;;;;;;;15.99;73.04;101813.59;5012131;28;20034;-77
2022/05/18 03:53:18;;;;;;;11.70;6.47;;;;;;;16.02;73.35;101814.34;5013416;28;20022;-77
2022/05/18 03:55:45;;;;;;;10.50;6.45;;;;;;;16.06;73.23;101815.97;5012621;28;20080;-77
2022/05/18 03:58:12;;;;;;;9.13;6.32;;;;;;;16.08;73.00;101815.91;5012984;28;20033;-77
2022/05/18 04:00:39;;;;;;;8.10;5.93;;;;;;;16.12;72.99;101814.91;5013157;28;20037;-77
2022/05/18 04:03:06;;;;;;;10.38;6.97;;;;;;;16.13;73.04;101821.88;5013203;28;20067;-77
2022/05/18 04:05:32;;;;;;;9.93;6.35;;;;;;;16.18;72.99;101813.81;5012677;28;20025;-77
2022/05/18 04:07:58;;;;;;;9.60;6.25;;;;;;;16.20;72.66;101818.13;5012607;28;20026;-77
2022/05/18 04:10:23;;;;;;;10.75;6.90;;;;;;;16.22;72.66;101820.69;5013206;28;20029;-77
2022/05/18 04:12:48;;;;;;;9.25;6.43;;;;;;;16.22;73.05;101821.56;5013138;28;20441;-77
2022/05/18 04:15:16;;;;;;;9.38;6.47;;;;;;;16.27;72.54;101834.53;5012601;28;20052;-77
2022/05/18 04:17:45;;;;;;;11.73;6.90;;;;;;;16.29;72.42;101837.09;5011148;28;20049;-77
2022/05/18 04:20:16;;;;;;;11.57;6.65;;;;;;;16.33;72.26;101828.22;5012731;28;20026;-77
2022/05/18 04:22:41;;;;;;;10.48;6.55;;;;;;;16.36;72.15;101825.50;5012932;28;20026;-76
2022/05/18 04:25:08;;;;;;;9.65;6.13;;;;;;;16.38;72.02;101824.50;5012543;28;20029;-77
2022/05/18 04:27:33;;;;;;;9.95;6.10;;;;;;;16.41;71.98;101822.69;5012673;28;20476;-77
2022/05/18 04:29:58;;;;;;;10.23;6.15;;;;;;;16.45;71.83;101824.31;5012895;28;20049;-77
2022/05/18 04:32:24;;;;;;;10.70;6.25;;;;;;;16.49;71.52;101824.16;5012457;28;20026;-77
2022/05/18 04:34:50;;;;;;;9.20;6.28;;;;;;;16.52;71.34;101824.03;5012266;28;20472;-77
2022/05/18 04:37:17;;;;;;;10.20;6.80;;;;;;;16.56;71.30;101821.31;5011944;28;20043;-77
2022/05/18 04:39:42;;;;;;;10.35;6.57;;;;;;;16.61;71.43;101827.25;5011999;28;20025;-77
2022/05/18 04:42:07;;;;;;;8.40;6.65;;;;;;;16.66;71.21;101825.31;5011505;28;20036;-77
2022/05/18 04:44:33;;;;;;;12.10;6.30;;;;;;;16.73;70.87;101842.59;5012505;28;20037;-77
2022/05/18 04:46:58;;;;;;;9.90;6.22;;;;;;;16.80;70.68;101836.19;5012339;28;20041;-77
2022/05/18 04:49:25;;;;;;;10.60;6.32;;;;;;;16.87;70.66;101831.56;5012712;28;20056;-77
2022/05/18 04:51:51;;;;;;;10.27;6.28;;;;;;;16.97;70.23;101837.38;5012349;28;20485;-77
2022/05/18 04:54:16;;;;;;;8.40;6.40;;;;;;;17.05;69.56;101834.47;5011830;28;20021;-78
2022/05/18 04:56:41;;;;;;;8.20;5.88;;;;;;;17.17;69.61;101835.78;5012024;28;20034;-78
2022/05/18 04:59:07;;;;;;;11.45;6.25;;;;;;;17.28;69.09;101830.97;5012238;28;20111;-78
2022/05/18 05:01:34;;;;;;;9.30;6.53;;;;;;;17.36;68.34;101830.66;5011972;28;20029;-78
2022/05/18 05:04:00;;;;;;;7.72;6.07;;;;;;;17.43;68.23;101835.63;5011889;28;20066;-78
2022/05/18 05:06:26;;;;;;;8.40;6.43;;;;;;;17.51;67.36;101839.75;5011906;28;20108;-78
2022/05/18 05:08:52;;;;;;;11.65;6.30;;;;;;;17.58;67.69;101851.75;5011902;28;20026;-78
2022/05/18 05:11:18;;;;;;;9.07;6.63;;;;;;;17.63;67.23;101852.41;5012960;28;20025;-78
2022/05/18 05:13:44;;;;;;;11.57;6.05;;;;;;;17.67;67.00;101861.91;5012296;28;20025;-78
2022/05/18 05:16:11;;;;;;;13.32;6.30;;;;;;;17.71;66.76;101860.88;5011664;28;20040;-78
2022/05/18 05:18:38;;;;;;;9.68;6.63;;;;;;;17.76;66.98;101865.94;5011911;28;20029;-78
2022/05/18 05:21:04;;;;;;;21.98;6.95;;;;;;;17.77;66.76;101865.03;5013315;28;20066;-78
2022/05/18 05:23:29;;;;;;;18.95;6.68;;;;;;;17.80;66.77;101866.69;5012367;28;20026;-78
2022/05/18 05:25:56;;;;;;;9.27;6.32;;;;;;;17.84;66.73;101868.28;5012043;28;20037;-78
2022/05/18 05:28:22;;;;;;;20.77;6.72;;;;;;;17.90;66.81;101874.16;5012340;28;20029;-78
2022/05/18 05:30:47;;;;;;;12.45;6.70;;;;;;;17.99;66.06;101878.22;5012876;28;20380;-78
2022/05/18 05:33:13;;;;;;;16.00;6.40;;;;;;;18.10;65.40;101879.56;5012203;28;20026;-78
2022/05/18 05:35:41;;;;;;;10.80;6.13;;;;;;;18.20;65.45;101875.63;5011836;28;20026;-78
2022/05/18 05:38:09;;;;;;;10.75;5.97;;;;;;;18.32;64.68;101875.13;5010671;28;20075;-78
2022/05/18 05:40:36;;;;;;;9.05;5.95;;;;;;;18.42;63.82;101867.69;5012322;28;20028;-78
2022/05/18 05:43:11;;;;;;;8.68;5.72;;;;;;;18.56;63.80;101871.50;5011881;28;20073;-78
2022/05/18 05:45:38;;;;;;;10.80;5.57;;;;;;;18.68;63.46;101870.13;5010735;28;20373;-78
2022/05/18 05:48:05;;;;;;;6.63;5.18;;;;;;;18.79;62.73;101867.84;5011648;28;20037;-78
2022/05/18 05:50:30;;;;;;;6.35;5.25;;;;;;;18.86;61.86;101871.94;5011677;28;20030;-78
2022/05/18 05:52:57;;;;;;;8.60;5.55;;;;;;;18.94;62.74;101866.31;5011918;28;20048;-78
2022/05/18 05:55:23;;;;;;;6.50;5.22;;;;;;;19.01;61.45;101877.47;5012478;28;20022;-78
2022/05/18 05:57:48;;;;;;;8.45;5.18;;;;;;;19.05;61.39;101877.28;5012841;28;20034;-78
2022/05/18 06:00:14;;;;;;;5.70;4.72;;;;;;;19.06;60.94;101881.63;5011464;28;20033;-78
2022/05/18 06:02:39;;;;;;;8.77;5.15;;;;;;;19.08;61.67;101879.78;5011188;28;20026;-78
2022/05/18 06:05:05;;;;;;;8.07;4.90;;;;;;;19.10;61.43;101887.63;5011629;28;20036;-78
2022/05/18 06:07:31;;;;;;;9.90;5.47;;;;;;;19.11;61.46;101892.00;5012631;28;20036;-78
2022/05/18 06:09:57;;;;;;;8.80;5.28;;;;;;;19.13;61.02;101887.47;5011750;28;20037;-78
2022/05/18 06:12:25;;;;;;;6.82;4.97;;;;;;;19.17;61.03;101889.06;5012208;28;20461;-78
2022/05/18 06:14:50;;;;;;;6.80;5.57;;;;;;;19.19;61.17;101887.22;5009666;28;20040;-78
2022/05/18 06:17:16;;;;;;;7.95;5.15;;;;;;;19.23;60.94;101898.47;5010888;28;20021;-78
2022/05/18 06:19:41;;;;;;;14.98;4.78;;;;;;;19.27;60.79;101902.69;5011496;28;20087;-78
2022/05/18 06:22:07;;;;;;;8.55;5.20;;;;;;;19.31;61.65;101900.75;5011615;28;20042;-78
2022/05/18 06:24:32;;;;;;;7.63;5.25;;;;;;;19.36;60.65;101909.31;5010392;28;20026;-78
2022/05/18 06:26:59;;;;;;;9.45;5.75;;;;;;;19.41;60.81;101909.97;5012118;28;20424;-78
2022/05/18 06:29:25;;;;;;;6.65;4.88;;;;;;;19.46;61.10;101899.19;5009960;28;20030;-78
2022/05/18 06:31:50;;;;;;;7.20;4.80;;;;;;;19.53;61.79;101904.13;5013095;28;20109;-78
2022/05/18 06:34:15;;;;;;;7.60;5.35;;;;;;;19.60;61.30;101909.13;5010152;28;20076;-78
2022/05/18 06:36:40;;;;;;;7.75;4.78;;;;;;;19.66;60.40;101899.13;5011211;28;20026;-78
2022/05/18 06:39:06;;;;;;;9.00;4.80;;;;;;;19.72;60.75;101905.91;5011283;28;20026;-78
2022/05/18 06:41:32;;;;;;;8.88;5.05;;;;;;;19.78;60.69;101912.66;5011342;28;20384;-78
2022/05/18 06:44:03;;;;;;;9.60;4.75;;;;;;;19.85;61.10;101914.94;5010953;28;20420;-78
2022/05/18 06:46:30;;;;;;;6.90;4.68;;;;;;;19.92;61.21;101923.44;5009877;28;20499;-78
2022/05/18 06:48:56;;;;;;;6.40;4.15;;;;;;;19.96;59.81;101925.03;5010703;28;20493;-78
2022/05/18 06:51:28;;;;;;;6.45;4.15;;;;;;;19.99;59.32;101926.66;5011162;28;20030;-78
2022/05/18 06:53:55;;;;;;;15.45;4.40;;;;;;;20.02;59.50;101931.78;5010710;28;20029;-78
2022/05/18 06:56:23;;;;;;;11.15;4.40;;;;;;;20.07;59.57;101932.44;5011006;28;20033;-78
2022/05/18 06:58:49;;;;;;;14.07;4.32;;;;;;;20.10;59.31;101934.94;5011063;28;20033;-78
2022/05/18 07:01:15;;;;;;;7.65;4.40;;;;;;;20.13;58.82;101937.44;5011099;28;20073;-78
2022/05/18 07:03:41;;;;;;;7.47;4.38;;;;;;;20.17;58.91;101941.59;5010782;28;20026;-78
2022/05/18 07:06:07;;;;;;;7.53;4.38;;;;;;;20.22;58.38;101940.53;5011119;28;20152;-78
2022/05/18 07:08:32;;;;;;;10.20;4.25;;;;;;;20.25;58.77;101940.38;5010933;28;20021;-78
2022/05/18 07:10:58;;;;;;;8.68;4.22;;;;;;;20.28;58.09;101942.88;5010921;28;20030;-78
2022/05/18 07:13:23;;;;;;;9.23;3.97;;;;;;;20.31;59.10;101937.44;5012141;28;20436;-78
2022/05/18 07:15:48;;;;;;;8.07;4.05;;;;;;;20.34;57.51;101947.00;5014830;28;20048;-78
2022/05/18 07:18:14;;;;;;;6.97;4.00;;;;;;;20.34;57.51;101941.72;5014561;28;20079;-78
2022/05/18 07:20:40;;;;;;;13.10;4.10;;;;;;;20.35;57.79;101941.63;5014690;28;20077;-78
2022/05/18 07:23:05;;;;;;;9.23;4.32;;;;;;;20.36;58.54;101948.63;5014211;28;20025;-78
2022/05/18 07:25:31;;;;;;;7.07;3.88;;;;;;;20.37;58.23;101950.34;5014506;28;20068;-78
2022/05/18 07:27:56;;;;;;;10.25;4.57;;;;;;;20.38;58.02;101952.06;5012711;28;20102;-78
2022/05/18 07:30:21;;;;;;;10.65;4.20;;;;;;;20.40;57.33;101960.78;5014287;28;20050;-78
2022/05/18 07:32:46;;;;;;;8.13;4.40;;;;;;;20.40;55.79;101952.00;5014494;28;20033;-78
2022/05/18 07:35:12;;;;;;;12.15;4.72;;;;;;;20.42;56.54;101958.91;5013078;28;20033;-78
2022/05/18 07:37:37;;;;;;;12.57;4.80;;;;;;;20.46;56.11;101964.88;5014280;28;20366;-78
2022/05/18 07:40:03;;;;;;;9.95;4.82;;;;;;;20.54;55.89;101978.59;5013851;28;20025;-78
2022/05/18 07:42:29;;;;;;;10.70;5.35;;;;;;;20.62;56.12;101983.50;5014069;28;20022;-78
2022/05/18 07:44:54;;;;;;;10.13;6.20;;;;;;;20.70;55.08;101973.38;5014152;28;20030;-78
2022/05/18 07:47:27;;;;;;;10.55;6.57;;;;;;;20.77;55.61;101973.94;5013803;28;20041;-78
2022/05/18 07:49:52;;;;;;;12.27;6.95;;;;;;;20.80;55.10;101981.72;5013768;28;20030;-78
2022/05/18 07:52:18;;;;;;;16.10;7.20;;;;;;;20.91;55.87;101975.91;5013904;28;20424;-78
2022/05/18 07:54:47;;;;;;;12.35;7.30;;;;;;;21.02;55.80;101968.25;5013771;28;20025;-78
2022/05/18 07:57:12;;;;;;;11.20;6.88;;;;;;;21.15;55.60;101973.75;5013919;28;20033;-78
2022/05/18 07:59:37;;;;;;;12.93;7.25;;;;;;;21.27;55.33;101976.69;5013522;28;20040;-78
2022/05/18 08:02:03;;;;;;;13.70;8.02;;;;;;;21.34;55.66;101972.78;5013795;28;20030;-78
2022/05/18 08:04:28;;;;;;;11.18;6.95;;;;;;;21.38;55.09;101987.56;5013359;28;20064;-78
2022/05/18 08:06:53;;;;;;;11.70;7.55;;;;;;;21.42;55.60;101985.59;5013567;28;20030;-78
2022/05/18 08:09:22;;;;;;;15.02;7.38;;;;;;;21.45;56.04;101985.44;5013329;28;20052;-78
2022/05/18 08:17:17;;;;;;;12.82;7.05;;;;;;;21.68;55.69;101981.59;5013467;28;20037;-78
2022/05/18 08:19:43;;;;;;;10.57;6.57;;;;;;;21.74;57.34;101983.91;5013320;28;20018;-78
2022/05/18 08:22:08;;;;;;;10.68;6.40;;;;;;;21.82;55.58;101979.03;5013341;28;20576;-78
2022/05/18 08:24:36;;;;;;;8.00;6.25;;;;;;;21.88;56.39;101980.47;5011436;28;20032;-78
2022/05/18 08:27:02;;;;;;;10.27;6.13;;;;;;;21.92;56.02;101984.66;5013194;28;20018;-78
2022/05/18 08:29:27;;;;;;;14.18;6.20;;;;;;;21.95;56.55;101981.84;5013114;28;20029;-78
2022/05/18 08:31:52;;;;;;;10.23;5.43;;;;;;;22.01;56.79;101979.81;5013271;28;20152;-78
2022/05/18 08:34:19;;;;;;;8.20;5.25;;;;;;;22.07;56.91;101976.78;5012947;28;20120;-78
2022/05/18 08:36:44;;;;;;;6.80;4.88;;;;;;;22.14;56.86;101975.50;5011451;28;20033;-78
2022/05/18 08:39:10;;;;;;;10.02;4.88;;;;;;;22.18;56.13;101985.00;5012932;28;20037;-78
2022/05/18 08:41:44;;;;;;;9.77;4.43;;;;;;;22.20;56.80;101974.31;5011838;28;20026;-76
2022/05/18 08:44:20;;;;;;;13.43;4.82;;;;;;;22.24;56.95;101968.72;5009153;28;20476;-76
2022/05/18 08:47:00;;;;;;;10.00;4.95;;;;;;;22.27;54.96;101979.16;5012039;28;20025;-75
2022/05/18 08:49:47;;;;;;;7.35;4.68;;;;;;;22.31;55.89;101979.00;5012342;28;20037;-78
2022/05/18 08:52:39;;;;;;;7.57;4.00;;;;;;;22.34;55.16;101984.13;5012230;28;20026;-78
2022/05/18 08:55:35;;;;;;;8.50;4.20;;;;;;;22.37;54.92;101989.25;5011948;28;20021;-78
2022/05/18 08:58:01;;;;;;;6.57;3.55;;;;;;;22.37;54.16;101992.75;5010400;28;20448;-78
2022/05/18 09:00:34;;;;;;;5.97;3.40;;;;;;;22.37;53.44;101994.56;5011659;28;20059;-78
2022/05/18 09:03:32;;;;;;;6.32;3.55;;;;;;;22.40;54.76;101994.34;5011603;28;20064;-75
2022/05/18 09:06:24;;;;;;;8.00;4.10;;;;;;;22.42;54.43;101993.38;5000014;28;20034;-75
2022/05/18 09:11:46;;;;;;;8.32;4.63;;;;;;;22.52;54.39;101992.84;5010112;28;20037;-75
2022/05/18 09:14:14;;;;;;;10.05;4.43;;;;;;;22.54;54.41;102002.44;5011350;28;20021;-75
2022/05/18 09:16:51;;;;;;;9.05;4.35;;;;;;;22.55;54.47;101993.50;5011593;28;21301;-76
2022/05/18 09:19:33;;;;;;;6.32;3.92;;;;;;;22.54;53.80;101991.81;5010866;28;20029;-78
2022/05/18 09:22:18;;;;;;;9.73;4.18;;;;;;;22.60;54.64;101998.56;5009617;28;20030;-75
2022/05/18 09:25:02;;;;;;;10.35;4.30;;;;;;;22.64;54.25;101997.41;5011353;28;20488;-76
2022/05/18 09:27:42;;;;;;;8.02;4.65;;;;;;;22.69;54.51;101991.84;5010686;28;20117;-76
2022/05/18 09:30:34;;;;;;;10.00;4.18;;;;;;;22.72;54.10;101983.69;5009830;28;20492;-78
2022/05/18 09:33:08;;;;;;;7.35;4.40;;;;;;;22.78;54.03;101991.31;5011207;28;20022;-79
2022/05/18 09:36:03;;;;;;;6.57;4.28;;;;;;;22.84;54.26;101998.91;5009965;28;20030;-79
2022/05/18 09:38:40;;;;;;;8.18;4.70;;;;;;;22.91;54.10;101993.22;5010012;28;20029;-78
2022/05/18 09:41:10;;;;;;;11.38;4.45;;;;;;;23.01;53.52;101997.03;5011269;28;20021;-78
2022/05/18 09:43:47;;;;;;;10.80;4.38;;;;;;;23.12;53.79;101997.22;5011110;28;20025;-76
2022/05/18 09:46:19;;;;;;;5.93;4.18;;;;;;;23.24;54.01;101992.16;5011144;28;20105;-76
2022/05/18 09:49:00;;;;;;;5.50;4.38;;;;;;;23.34;53.87;101993.31;5010762;28;20103;-76
2022/05/18 09:51:26;;;;;;;7.22;4.15;;;;;;;23.38;52.93;101991.31;5010806;28;20040;-78
2022/05/18 09:53:52;;;;;;;7.97;4.60;;;;;;;23.44;52.65;101991.78;5010957;28;20030;-78
2022/05/18 09:56:35;;;;;;;8.18;4.90;;;;;;;23.49;52.95;101989.69;5010851;28;20026;-78
2022/05/18 09:59:07;;;;;;;7.55;4.55;;;;;;;23.57;52.25;101993.69;5011038;28;20022;-76
2022/05/18 10:10:10;;;;;;;7.22;4.60;;;;;;;23.75;51.87;101991.66;5010211;28;20492;-76
2022/05/18 10:12:40;;;;;;;8.82;4.05;;;;;;;23.76;53.14;101985.38;5008823;28;20029;-76
2022/05/18 10:15:19;;;;;;;6.20;3.83;;;;;;;23.79;52.29;101985.19;5007162;28;20045;-76
2022/05/18 10:17:48;;;;;;;6.90;4.90;;;;;;;23.80;51.61;101990.41;5007084;28;20414;-76
2022/05/18 10:20:28;;;;;;;5.85;4.07;;;;;;;23.79;51.96;101991.34;5010386;28;20030;-76
2022/05/18 10:22:55;;;;;;;7.82;4.75;;;;;;;23.75;51.16;101986.34;5009796;28;20069;-76
2022/05/18 10:25:28;;;;;;;6.15;4.13;;;;;;;23.71;52.24;101990.13;5010245;28;20473;-76
2022/05/18 10:27:54;;;;;;;9.25;4.97;;;;;;;23.63;51.88;101982.66;5024955;28;20056;-77
2022/05/18 10:30:28;;;;;;;7.95;4.53;;;;;;;23.58;52.67;101987.38;5010285;28;20033;-76
2022/05/18 10:33:07;;;;;;;7.85;4.82;;;;;;;23.58;52.49;101982.06;5010391;28;20022;-76
2022/05/18 10:35:35;;;;;;;8.50;5.03;;;;;;;23.59;52.33;101987.31;5010291;28;20036;-76
2022/05/18 10:38:13;;;;;;;7.72;4.93;;;;;;;23.60;52.13;101980.19;5009223;28;20033;-76
2022/05/18 10:40:39;;;;;;;6.70;5.18;;;;;;;23.59;51.64;101978.47;5010325;28;20087;-76
2022/05/18 10:43:27;;;;;;;7.28;5.13;;;;;;;23.53;52.57;101978.88;5010260;28;20022;-76
2022/05/18 10:45:54;;;;;;;8.38;5.25;;;;;;;23.49;52.10;101979.06;5008908;28;20034;-76
2022/05/18 10:48:22;;;;;;;8.18;4.80;;;;;;;23.47;51.67;101985.44;5013086;28;20521;-76
2022/05/18 10:50:49;;;;;;;6.80;4.60;;;;;;;23.45;51.47;101974.06;5014322;28;20033;-76
2022/05/18 10:53:15;;;;;;;6.22;4.18;;;;;;;23.49;50.88;101965.78;5014411;28;20018;-76
2022/05/18 10:55:55;;;;;;;5.72;3.75;;;;;;;23.57;51.75;101969.78;5014393;28;20369;-76
2022/05/18 10:58:40;;;;;;;6.25;3.70;;;;;;;23.62;51.99;101973.84;5014252;28;20022;-76
2022/05/18 11:01:22;;;;;;;8.63;4.68;;;;;;;23.63;51.08;101972.91;5014477;28;20651;-77
2022/05/18 11:04:09;;;;;;;10.23;4.00;;;;;;;23.61;51.70;101961.50;5012842;28;20052;-76
2022/05/18 11:06:40;;;;;;;6.70;4.03;;;;;;;23.64;50.76;101961.31;5014087;28;20044;-76
2022/05/18 11:09:22;;;;;;;6.10;4.07;;;;;;;23.65;50.76;101963.00;5014133;28;20029;-76
2022/05/18 11:12:06;;;;;;;5.50;3.63;;;;;;;23.69;51.92;101969.00;5014242;28;20037;-76
2022/05/18 11:15:09;;;;;;;5.93;3.63;;;;;;;23.71;51.50;101956.47;5013936;28;20389;-76
2022/05/18 11:17:48;;;;;;;4.60;3.40;;;;;;;23.75;52.44;101963.25;4953434;28;20119;-76
2022/05/18 11:20:37;;;;;;;5.97;3.70;;;;;;;23.76;51.54;101959.66;5007682;28;20507;-76
2022/05/18 11:23:14;;;;;;;7.18;3.97;;;;;;;23.79;51.32;101974.56;5013732;28;20034;-76
2022/05/18 11:26:17;;;;;;;7.40;3.80;;;;;;;23.75;51.03;101960.59;5012378;28;20026;-76
2022/05/18 11:29:10;;;;;;;6.05;3.50;;;;;;;23.74;52.81;101972.19;5013798;28;20033;-76
2022/05/18 11:31:51;;;;;;;7.18;3.58;;;;;;;23.72;52.05;101958.16;5013509;28;20025;-76
2022/05/18 11:34:36;;;;;;;5.85;3.45;;;;;;;23.78;51.72;101968.38;5013747;28;20099;-76
2022/05/18 11:37:13;;;;;;;5.75;2.75;;;;;;;23.84;51.42;101963.63;5013286;28;20087;-76
2022/05/18 11:40:02;;;;;;;4.18;2.60;;;;;;;23.84;50.25;101955.66;5013456;28;20034;-76
2022/05/18 11:42:57;;;;;;;4.10;2.03;;;;;;;23.85;51.13;101949.41;5013197;28;20044;-76
2022/05/18 11:46:07;;;;;;;4.75;2.65;;;;;;;23.92;51.57;101956.00;5013294;28;20547;-76
2022/05/18 11:48:39;;;;;;;5.25;2.88;;;;;;;24.00;50.63;101956.41;4952569;28;20142;-76
2022/05/18 11:51:28;;;;;;;4.50;2.65;;;;;;;24.09;50.26;101947.81;5007434;28;20042;-76
2022/05/18 11:54:06;;;;;;;6.03;2.90;;;;;;;24.16;49.23;101947.41;5013292;28;20033;-76
2022/05/18 11:56:46;;;;;;;6.35;2.92;;;;;;;24.23;50.44;101940.75;5013038;28;20021;-76
2022/05/18 11:59:29;;;;;;;7.40;2.63;;;;;;;24.34;49.84;101956.84;5011111;28;20092;-76